createdAt,value
2022-08-20T00:02:21.243Z,99.90
2022-08-20T00:05:08.701Z,99.90
2022-08-20T00:07:56.394Z,99.90
2022-08-20T00:10:47.667Z,99.90
2022-08-20T00:13:41.401Z,99.90
2022-08-20T00:16:32.283Z,99.90
2022-08-20T00:19:19.571Z,99.90
2022-08-20T00:22:07.071Z,99.90
2022-08-20T00:24:54.540Z,99.90
2022-08-20T00:27:41.903Z,99.90
2022-08-20T00:30:29.722Z,99.90
2022-08-20T00:33:19.967Z,99.90
2022-08-20T00:36:10.626Z,99.90
2022-08-20T00:38:57.886Z,99.90
2022-08-20T00:41:46.149Z,99.90
2022-08-20T00:44:33.938Z,99.90
2022-08-20T00:47:21.510Z,99.90
2022-08-20T00:50:11.649Z,99.90
2022-08-20T00:53:02.667Z,99.90
2022-08-20T00:55:49.908Z,99.90
2022-08-20T00:58:39.978Z,99.90
2022-08-20T01:01:27.594Z,99.90
2022-08-20T01:04:15.416Z,99.90
2022-08-20T01:07:05.246Z,99.90
2022-08-20T01:09:58.939Z,99.90
2022-08-20T01:12:45.791Z,99.90
2022-08-20T01:15:33.335Z,99.90
2022-08-20T01:18:24.970Z,99.90
2022-08-20T01:21:12.875Z,99.90
2022-08-20T01:24:09.398Z,99.90
2022-08-20T01:26:57.691Z,99.90
2022-08-20T01:29:44.881Z,99.90
2022-08-20T01:32:32.139Z,99.90
2022-08-20T01:35:22.756Z,99.90
2022-08-20T01:38:11.260Z,99.90
2022-08-20T01:41:28.208Z,99.90
2022-08-20T01:44:18.551Z,99.90
2022-08-20T01:47:16.047Z,99.90
2022-08-20T01:50:06.550Z,99.90
2022-08-20T01:52:59.744Z,99.90
2022-08-20T01:55:47.424Z,99.90
2022-08-20T01:58:37.868Z,99.90
2022-08-20T02:01:28.238Z,99.90
2022-08-20T02:04:18.112Z,99.90
2022-08-20T02:07:08.300Z,99.90
2022-08-20T02:09:55.616Z,99.90
2022-08-20T02:12:43.010Z,99.90
2022-08-20T02:15:49.690Z,99.90
2022-08-20T02:18:37.374Z,99.90
2022-08-20T02:21:28.149Z,99.90
2022-08-20T02:24:16.265Z,99.90
2022-08-20T02:27:03.886Z,99.90
2022-08-20T02:29:52.548Z,99.90
2022-08-20T02:32:41.101Z,99.90
2022-08-20T02:35:29.238Z,99.90
2022-08-20T02:38:17.387Z,99.90
2022-08-20T02:41:04.692Z,99.90
2022-08-20T02:43:52.247Z,99.90
2022-08-20T02:46:39.828Z,99.90
2022-08-20T02:49:28.535Z,99.90
2022-08-20T02:52:16.088Z,99.90
2022-08-20T02:55:03.325Z,99.90
2022-08-20T02:57:50.857Z,99.90
2022-08-20T03:00:39.933Z,99.90
2022-08-20T03:03:27.593Z,99.90
2022-08-20T03:06:16.061Z,99.90
2022-08-20T03:09:05.111Z,99.90
2022-08-20T03:11:52.959Z,99.90
2022-08-20T03:14:40.174Z,99.90
2022-08-20T03:17:27.784Z,99.90
2022-08-20T03:20:15.799Z,99.90
2022-08-20T03:23:03.547Z,99.90
2022-08-20T03:25:51.061Z,99.90
2022-08-20T03:28:39.458Z,99.90
2022-08-20T03:31:26.912Z,99.90
2022-08-20T03:34:14.578Z,99.90
2022-08-20T03:37:03.715Z,99.90
2022-08-20T03:39:51.335Z,99.90
2022-08-20T03:42:39.879Z,99.90
2022-08-20T03:45:29.353Z,99.90
2022-08-20T03:48:19.916Z,99.90
2022-08-20T03:51:07.565Z,99.90
2022-08-20T03:53:55.157Z,99.90
2022-08-20T03:56:42.504Z,99.90
2022-08-20T03:59:33.308Z,99.90
2022-08-20T04:02:20.985Z,99.90
2022-08-20T04:05:10.140Z,99.90
2022-08-20T04:08:03.221Z,99.90
2022-08-20T04:10:51.566Z,99.90
2022-08-20T04:13:42.653Z,99.90
2022-08-20T04:16:28.180Z,99.90
2022-08-20T04:19:15.889Z,99.90
2022-08-20T04:22:03.714Z,99.90
2022-08-20T04:24:50.995Z,99.90
2022-08-20T04:27:39.742Z,99.90
2022-08-20T04:30:28.061Z,99.90
2022-08-20T04:33:16.322Z,99.90
2022-08-20T04:36:06.510Z,99.90
2022-08-20T04:38:54.171Z,99.90
2022-08-20T04:41:42.745Z,99.90
2022-08-20T04:44:30.072Z,99.90
2022-08-20T04:47:26.812Z,99.90
2022-08-20T04:50:12.636Z,99.90
2022-08-20T04:52:59.720Z,99.90
2022-08-20T04:55:48.481Z,99.90
2022-08-20T04:58:38.682Z,99.90
2022-08-20T05:01:26.851Z,99.90
2022-08-20T05:04:14.602Z,99.90
2022-08-20T05:07:02.050Z,99.90
2022-08-20T05:09:49.113Z,99.90
2022-08-20T05:12:36.628Z,99.90
2022-08-20T05:15:25.857Z,99.90
2022-08-20T05:18:14.246Z,99.90
2022-08-20T05:21:06.225Z,99.90
2022-08-20T05:23:53.963Z,99.90
2022-08-20T05:26:42.167Z,99.90
2022-08-20T05:29:29.806Z,99.90
2022-08-20T05:32:17.205Z,99.90
2022-08-20T05:35:07.821Z,99.90
2022-08-20T05:37:55.525Z,99.90
2022-08-20T05:40:43.609Z,99.90
2022-08-20T05:43:32.619Z,99.90
2022-08-20T05:46:20.328Z,99.90
2022-08-20T05:49:12.022Z,99.90
2022-08-20T05:51:59.578Z,99.90
2022-08-20T05:54:47.358Z,99.90
2022-08-20T05:57:34.789Z,99.90
2022-08-20T06:00:22.160Z,99.90
2022-08-20T06:03:27.517Z,99.90
2022-08-20T06:06:21.659Z,99.90
2022-08-20T06:09:04.566Z,99.90
2022-08-20T06:11:52.314Z,99.90
2022-08-20T06:14:40.080Z,99.90
2022-08-20T06:17:29.347Z,99.90
2022-08-20T06:20:18.379Z,99.90
2022-08-20T06:23:06.675Z,99.90
2022-08-20T06:25:54.450Z,99.90
2022-08-20T06:28:41.980Z,99.90
2022-08-20T06:31:29.943Z,99.90
2022-08-20T06:34:18.583Z,99.90
2022-08-20T06:37:18.056Z,99.90
2022-08-20T06:40:12.185Z,99.90
2022-08-20T06:42:59.323Z,99.90
2022-08-20T06:45:46.852Z,99.90
2022-08-20T06:48:35.945Z,99.90
2022-08-20T06:51:23.482Z,99.90
2022-08-20T06:54:10.880Z,99.90
2022-08-20T06:56:58.054Z,99.90
2022-08-20T06:59:45.498Z,99.90
2022-08-20T07:02:35.813Z,99.90
2022-08-20T07:05:23.377Z,99.90
2022-08-20T07:08:18.012Z,99.90
2022-08-20T07:11:05.457Z,99.90
2022-08-20T07:13:52.690Z,99.90
2022-08-20T07:16:40.422Z,99.90
2022-08-20T07:19:28.070Z,99.90
2022-08-20T07:22:15.240Z,99.90
2022-08-20T07:25:02.975Z,99.90
2022-08-20T07:27:51.117Z,99.90
2022-08-20T07:30:57.807Z,99.90
2022-08-20T07:33:46.057Z,99.90
2022-08-20T07:36:34.021Z,99.90
2022-08-20T07:39:21.667Z,99.90
2022-08-20T07:42:10.118Z,99.90
2022-08-20T07:44:57.838Z,99.90
2022-08-20T07:47:46.463Z,99.90
2022-08-20T07:50:33.959Z,99.90
2022-08-20T07:53:21.636Z,99.90
2022-08-20T07:56:12.820Z,99.90
2022-08-20T07:59:01.499Z,99.90
2022-08-20T08:01:49.107Z,99.90
2022-08-20T08:04:37.134Z,99.90
2022-08-20T08:07:25.313Z,99.90
2022-08-20T08:10:15.779Z,99.90
2022-08-20T08:13:06.247Z,99.90
2022-08-20T08:15:57.601Z,99.90
2022-08-20T08:18:49.709Z,99.90
2022-08-20T08:21:37.290Z,99.90
2022-08-20T08:24:28.344Z,99.90
2022-08-20T08:27:18.573Z,99.90
2022-08-20T08:30:08.060Z,99.90
2022-08-20T08:33:14.067Z,99.90
2022-08-20T08:36:11.042Z,99.90
2022-08-20T08:38:58.487Z,99.90
2022-08-20T08:41:50.038Z,99.90
2022-08-20T08:44:40.308Z,99.90
2022-08-20T08:47:30.794Z,99.90
2022-08-20T08:50:43.869Z,99.90
2022-08-20T08:53:16.304Z,99.90
2022-08-20T08:56:04.866Z,99.90
2022-08-20T08:58:52.040Z,99.90
2022-08-20T09:01:55.424Z,99.90
2022-08-20T09:04:41.040Z,99.90
2022-08-20T09:07:31.335Z,99.90
2022-08-20T09:10:22.947Z,99.90
2022-08-20T09:13:09.013Z,99.90
2022-08-20T09:15:56.815Z,99.90
2022-08-20T09:18:44.577Z,99.90
2022-08-20T09:21:31.847Z,99.90
2022-08-20T09:24:19.164Z,99.90
2022-08-20T09:27:07.078Z,99.90
2022-08-20T09:29:54.409Z,99.90
2022-08-20T09:32:43.052Z,99.90
2022-08-20T09:35:30.740Z,99.90
2022-08-20T09:38:18.273Z,99.90
2022-08-20T09:41:05.719Z,99.90
2022-08-20T09:43:53.357Z,99.90
2022-08-20T09:46:41.152Z,99.90
2022-08-20T09:49:28.703Z,99.90
2022-08-20T09:52:27.885Z,99.90
2022-08-20T09:55:27.308Z,99.90
2022-08-20T09:58:29.969Z,99.90
2022-08-20T10:01:20.329Z,99.90
2022-08-20T10:04:08.030Z,99.90
2022-08-20T10:06:55.882Z,99.90
2022-08-20T10:09:42.974Z,99.90
2022-08-20T10:12:30.502Z,99.90
2022-08-20T10:15:18.100Z,99.90
2022-08-20T10:18:07.735Z,99.90
2022-08-20T10:20:55.348Z,99.90
2022-08-20T10:23:43.226Z,99.90
2022-08-20T10:26:30.897Z,99.90
2022-08-20T10:29:18.331Z,99.90
2022-08-20T10:32:15.229Z,99.90
2022-08-20T10:35:02.719Z,99.90
2022-08-20T10:37:50.138Z,99.90
2022-08-20T10:40:37.535Z,99.90
2022-08-20T10:43:24.922Z,99.10
2022-08-20T10:46:12.568Z,98.10
2022-08-20T10:48:59.891Z,96.90
2022-08-20T10:51:47.294Z,96.60
2022-08-20T10:54:34.624Z,96.00
2022-08-20T10:57:28.369Z,96.80
2022-08-20T11:00:17.883Z,95.40
2022-08-20T11:03:05.624Z,95.40
2022-08-20T11:05:52.895Z,95.10
2022-08-20T11:08:40.337Z,96.00
2022-08-20T11:11:27.591Z,95.40
2022-08-20T11:14:15.099Z,95.70
2022-08-20T11:17:03.641Z,95.70
2022-08-20T11:19:51.289Z,96.00
2022-08-20T11:22:38.696Z,96.00
2022-08-20T11:25:26.659Z,95.70
2022-08-20T11:28:14.813Z,95.80
2022-08-20T11:31:02.895Z,96.10
2022-08-20T11:33:49.881Z,95.80
2022-08-20T11:36:37.828Z,95.90
2022-08-20T11:39:25.660Z,96.10
2022-08-20T11:42:13.258Z,95.20
2022-08-20T11:45:00.551Z,93.30
2022-08-20T11:47:48.390Z,93.20
2022-08-20T11:50:35.542Z,91.00
2022-08-20T11:53:22.897Z,89.00
2022-08-20T11:56:10.832Z,87.40
2022-08-20T11:59:00.369Z,87.90
2022-08-20T12:02:02.730Z,85.10
2022-08-20T12:04:36.367Z,80.70
2022-08-20T12:07:26.054Z,78.90
2022-08-20T12:10:14.037Z,79.20
2022-08-20T12:13:04.515Z,78.00
2022-08-20T12:15:51.422Z,76.70
2022-08-20T12:18:39.243Z,79.80
2022-08-20T12:21:30.732Z,81.00
2022-08-20T12:24:15.658Z,77.40
2022-08-20T12:27:18.417Z,79.80
2022-08-20T12:30:09.326Z,75.30
2022-08-20T12:32:56.994Z,73.90
2022-08-20T12:35:44.316Z,71.90
2022-08-20T12:38:31.980Z,71.70
2022-08-20T12:41:19.310Z,70.40
2022-08-20T12:44:07.102Z,70.50
2022-08-20T12:47:17.486Z,71.70
2022-08-20T12:50:08.061Z,71.00
2022-08-20T12:52:55.524Z,70.30
2022-08-20T12:55:43.366Z,70.40
2022-08-20T12:58:30.619Z,70.00
2022-08-20T13:01:18.267Z,68.50
2022-08-20T13:04:05.823Z,69.10
2022-08-20T13:06:53.330Z,68.30
2022-08-20T13:09:43.193Z,69.90
2022-08-20T13:12:31.023Z,67.70
2022-08-20T13:15:19.449Z,67.30
2022-08-20T13:18:08.224Z,67.70
2022-08-20T13:20:55.726Z,64.90
2022-08-20T13:23:43.449Z,63.80
2022-08-20T13:26:30.862Z,62.70
2022-08-20T13:29:19.622Z,63.10
2022-08-20T13:32:08.645Z,62.90
2022-08-20T13:34:56.297Z,62.00
2022-08-20T13:37:44.337Z,62.40
2022-08-20T13:40:32.264Z,63.90
2022-08-20T13:43:20.079Z,61.20
2022-08-20T13:46:07.324Z,60.90
2022-08-20T13:48:54.927Z,59.70
2022-08-20T13:51:42.505Z,60.10
2022-08-20T13:54:30.597Z,58.60
2022-08-20T13:57:20.293Z,58.10
2022-08-20T14:00:13.675Z,57.80
2022-08-20T14:03:03.120Z,58.70
2022-08-20T14:05:50.366Z,58.70
2022-08-20T14:08:38.100Z,57.60
2022-08-20T14:11:28.430Z,57.20
2022-08-20T14:14:16.126Z,56.80
2022-08-20T14:17:29.489Z,55.30
2022-08-20T14:20:19.640Z,55.20
2022-08-20T14:23:06.770Z,54.60
2022-08-20T14:25:54.302Z,56.10
2022-08-20T14:28:42.020Z,57.30
2022-08-20T14:31:29.363Z,56.80
2022-08-20T14:34:16.989Z,55.40
2022-08-20T14:37:21.299Z,54.40
2022-08-20T14:40:12.048Z,55.40
2022-08-20T14:42:59.732Z,56.00
2022-08-20T14:45:47.326Z,57.00
2022-08-20T14:48:34.905Z,58.10
2022-08-20T14:51:22.357Z,57.60
2022-08-20T14:54:09.582Z,57.20
2022-08-20T14:57:02.184Z,56.80
2022-08-20T14:59:49.220Z,57.20
2022-08-20T15:02:36.883Z,56.90
2022-08-20T15:05:24.390Z,57.30
2022-08-20T15:08:12.091Z,56.90
2022-08-20T15:11:00.495Z,57.50
2022-08-20T15:13:47.793Z,57.40
2022-08-20T15:16:36.035Z,57.20
2022-08-20T15:19:23.595Z,58.40
2022-08-20T15:22:11.094Z,59.70
2022-08-20T15:24:58.762Z,57.80
2022-08-20T15:27:46.864Z,57.60
2022-08-20T15:30:34.355Z,58.30
2022-08-20T15:33:21.903Z,59.00
2022-08-20T15:36:11.036Z,57.70
2022-08-20T15:38:58.463Z,57.40
2022-08-20T15:41:45.977Z,57.60
2022-08-20T15:44:34.042Z,57.70
2022-08-20T15:47:27.383Z,57.30
2022-08-20T15:50:17.818Z,56.80
2022-08-20T15:53:08.596Z,56.10
2022-08-20T15:56:02.305Z,56.80
2022-08-20T15:58:58.908Z,56.40
2022-08-20T16:01:50.259Z,55.80
2022-08-20T16:04:46.044Z,55.30
2022-08-20T16:07:48.468Z,55.70
2022-08-20T16:10:44.597Z,56.70
2022-08-20T16:13:40.500Z,56.80
2022-08-20T16:16:33.756Z,56.40
2022-08-20T16:19:26.967Z,56.00
2022-08-20T16:22:17.578Z,56.50
2022-08-20T16:25:05.852Z,57.10
2022-08-20T16:28:04.913Z,57.00
2022-08-20T16:30:55.404Z,57.00
2022-08-20T16:34:32.281Z,57.00
2022-08-20T16:37:32.493Z,56.90
2022-08-20T16:40:31.739Z,57.20
2022-08-20T16:43:31.144Z,57.40
2022-08-20T16:46:24.256Z,58.00
2022-08-20T16:49:14.349Z,58.70
2022-08-20T16:52:02.284Z,59.10
2022-08-20T16:54:49.499Z,59.20
2022-08-20T16:57:36.730Z,59.40
2022-08-20T17:00:32.263Z,59.30
2022-08-20T17:03:31.734Z,59.40
2022-08-20T17:06:18.248Z,59.60
2022-08-20T17:09:11.632Z,59.80
2022-08-20T17:12:14.381Z,59.80
2022-08-20T17:15:02.891Z,59.30
2022-08-20T17:17:50.225Z,59.30
2022-08-20T17:20:40.438Z,59.50
2022-08-20T17:23:28.382Z,59.80
2022-08-20T17:26:27.929Z,60.30
2022-08-20T17:29:21.222Z,60.40
2022-08-20T17:32:28.909Z,60.80
2022-08-20T17:35:23.401Z,61.60
2022-08-20T17:38:29.981Z,62.10
2022-08-20T17:41:26.686Z,62.30
2022-08-20T17:44:23.935Z,62.30
2022-08-20T17:47:15.131Z,62.90
2022-08-20T17:50:05.228Z,63.70
2022-08-20T17:52:55.992Z,63.60
2022-08-20T17:55:44.776Z,64.60
2022-08-20T17:58:41.041Z,64.40
2022-08-20T18:01:30.158Z,64.50
2022-08-20T18:04:17.398Z,65.40
2022-08-20T18:07:13.147Z,66.00
2022-08-20T18:10:17.220Z,66.10
2022-08-20T18:13:16.692Z,66.00
2022-08-20T18:16:06.399Z,66.40
2022-08-20T18:19:12.062Z,66.20
2022-08-20T18:22:14.668Z,66.50
2022-08-20T18:25:34.419Z,67.80
2022-08-20T18:28:25.073Z,68.60
2022-08-20T18:31:24.696Z,69.30
2022-08-20T18:34:18.007Z,69.30
2022-08-20T18:37:13.382Z,69.10
2022-08-20T18:40:06.641Z,68.90
2022-08-20T18:42:55.169Z,69.30
2022-08-20T18:45:44.066Z,70.00
2022-08-20T18:48:31.562Z,70.50
2022-08-20T18:51:22.139Z,72.00
2022-08-20T18:54:12.364Z,71.70
2022-08-20T18:57:07.451Z,72.20
2022-08-20T19:00:16.497Z,72.90
2022-08-20T19:03:13.231Z,73.60
2022-08-20T19:06:07.316Z,74.20
2022-08-20T19:09:04.033Z,74.40
2022-08-20T19:12:22.025Z,74.80
2022-08-20T19:15:12.953Z,75.30
2022-08-20T19:18:08.793Z,77.10
2022-08-20T19:20:58.295Z,76.40
2022-08-20T19:23:48.844Z,76.60
2022-08-20T19:26:54.568Z,77.10
2022-08-20T19:29:44.931Z,77.70
2022-08-20T19:32:35.026Z,78.50
2022-08-20T19:35:24.099Z,79.20
2022-08-20T19:38:16.873Z,79.80
2022-08-20T19:41:11.627Z,79.90
2022-08-20T19:44:02.203Z,80.60
2022-08-20T19:46:50.408Z,81.20
2022-08-20T19:49:43.763Z,82.00
2022-08-20T19:52:51.099Z,82.10
2022-08-20T19:55:40.781Z,83.20
2022-08-20T19:58:29.296Z,82.80
2022-08-20T20:01:21.664Z,83.10
2022-08-20T20:04:12.346Z,83.10
2022-08-20T20:06:59.975Z,83.50
2022-08-20T20:09:51.311Z,83.90
2022-08-20T20:12:40.387Z,84.00
2022-08-20T20:15:27.629Z,84.50
2022-08-20T20:18:15.323Z,84.50
2022-08-20T20:21:23.585Z,84.70
2022-08-20T20:24:13.559Z,84.90
2022-08-20T20:27:01.571Z,85.50
2022-08-20T20:29:51.824Z,85.60
2022-08-20T20:32:48.643Z,85.40
2022-08-20T20:35:37.911Z,86.60
2022-08-20T20:38:28.489Z,87.40
2022-08-20T20:41:25.227Z,87.20
2022-08-20T20:44:28.347Z,86.90
2022-08-20T20:47:27.667Z,86.90
2022-08-20T20:50:16.545Z,87.60
2022-08-20T20:53:04.562Z,87.10
2022-08-20T20:55:57.737Z,89.20
2022-08-20T20:58:53.732Z,89.80
2022-08-20T21:01:48.200Z,88.70
2022-08-20T21:04:25.395Z,89.20
2022-08-20T21:07:15.771Z,89.40
2022-08-20T21:10:03.944Z,89.80
2022-08-20T21:12:53.375Z,90.10
2022-08-20T21:15:40.868Z,90.20
2022-08-20T21:18:28.144Z,90.70
2022-08-20T21:21:16.047Z,91.30
2022-08-20T21:24:04.121Z,91.80
2022-08-20T21:26:52.627Z,91.90
2022-08-20T21:29:40.037Z,92.30
2022-08-20T21:32:27.444Z,92.10
2022-08-20T21:35:15.592Z,92.90
2022-08-20T21:38:03.049Z,92.80
2022-08-20T21:40:50.286Z,93.10
2022-08-20T21:43:37.708Z,93.20
2022-08-20T21:46:25.927Z,93.50
2022-08-20T21:49:14.891Z,93.50
2022-08-20T21:52:02.264Z,93.50
2022-08-20T21:54:49.654Z,93.60
2022-08-20T21:57:37.932Z,93.70
2022-08-20T22:00:45.105Z,94.00
2022-08-20T22:03:38.604Z,94.10
2022-08-20T22:06:27.149Z,94.20
2022-08-20T22:09:15.468Z,94.40
2022-08-20T22:12:04.885Z,94.40
2022-08-20T22:14:52.243Z,94.40
2022-08-20T22:17:39.768Z,94.60
2022-08-20T22:20:26.775Z,94.70
2022-08-20T22:23:14.142Z,94.80
2022-08-20T22:26:01.932Z,94.80
2022-08-20T22:28:51.277Z,94.80
2022-08-20T22:31:41.374Z,94.80
2022-08-20T22:34:31.341Z,94.90
2022-08-20T22:37:18.749Z,95.30
2022-08-20T22:40:07.568Z,95.60
2022-08-20T22:42:55.189Z,95.70
2022-08-20T22:45:44.801Z,95.80
2022-08-20T22:48:33.872Z,96.20
2022-08-20T22:51:30.434Z,96.00
2022-08-20T22:54:21.222Z,96.10
2022-08-20T22:57:08.740Z,96.60
2022-08-20T22:59:56.628Z,96.70
2022-08-20T23:02:46.380Z,97.40
2022-08-20T23:05:36.394Z,97.10
2022-08-20T23:08:23.612Z,98.00
2022-08-20T23:11:12.974Z,98.40
2022-08-20T23:14:00.318Z,98.60
2022-08-20T23:16:50.141Z,99.30
2022-08-20T23:19:39.025Z,99.90
2022-08-20T23:22:26.604Z,99.90
2022-08-20T23:25:16.312Z,99.90
2022-08-20T23:28:04.391Z,99.90
2022-08-20T23:30:52.530Z,99.90
2022-08-20T23:33:42.972Z,99.90
2022-08-20T23:36:28.641Z,99.90
2022-08-20T23:39:16.171Z,99.90
2022-08-20T23:42:04.505Z,99.90
2022-08-20T23:44:52.067Z,99.90
2022-08-20T23:47:39.449Z,99.90
2022-08-20T23:50:29.197Z,99.90
2022-08-20T23:53:16.940Z,99.90
2022-08-20T23:56:05.607Z,99.90
2022-08-20T23:58:53.093Z,99.90
